sensor_id;sensor_type;location;lat;lon;timestamp;P1;durP1;ratioP1;P2;durP2;ratioP2
52458;SDS011;38372;52.902;6.024;2022-11-18T00:00:49;8.90;;;6.20;;
52458;SDS011;38372;52.902;6.024;2022-11-18T00:03:15;12.55;;;6.68;;
52458;SDS011;38372;52.902;6.024;2022-11-18T00:05:41;13.82;;;7.38;;
52458;SDS011;38372;52.902;6.024;2022-11-18T00:08:07;11.50;;;7.88;;
52458;SDS011;38372;52.902;6.024;2022-11-18T00:10:36;14.85;;;8.30;;
52458;SDS011;38372;52.902;6.024;2022-11-18T00:13:03;12.77;;;8.52;;
52458;SDS011;38372;52.902;6.024;2022-11-18T00:15:47;14.70;;;10.07;;
52458;SDS011;38372;52.902;6.024;2022-11-18T00:18:13;12.68;;;8.85;;
52458;SDS011;38372;52.902;6.024;2022-11-18T00:20:39;12.40;;;8.75;;
52458;SDS011;38372;52.902;6.024;2022-11-18T00:23:05;13.57;;;10.02;;
52458;SDS011;38372;52.902;6.024;2022-11-18T00:25:33;14.73;;;9.82;;
52458;SDS011;38372;52.902;6.024;2022-11-18T00:27:59;15.23;;;9.70;;
52458;SDS011;38372;52.902;6.024;2022-11-18T00:30:26;12.77;;;9.32;;
52458;SDS011;38372;52.902;6.024;2022-11-18T00:32:55;13.25;;;10.07;;
52458;SDS011;38372;52.902;6.024;2022-11-18T00:35:21;14.55;;;9.82;;
52458;SDS011;38372;52.902;6.024;2022-11-18T00:37:47;15.13;;;10.27;;
52458;SDS011;38372;52.902;6.024;2022-11-18T00:40:13;14.82;;;10.70;;
52458;SDS011;38372;52.902;6.024;2022-11-18T00:42:39;15.45;;;11.30;;
52458;SDS011;38372;52.902;6.024;2022-11-18T00:45:18;14.20;;;10.82;;
52458;SDS011;38372;52.902;6.024;2022-11-18T00:47:45;17.38;;;11.10;;
52458;SDS011;38372;52.902;6.024;2022-11-18T00:50:11;14.57;;;10.80;;
52458;SDS011;38372;52.902;6.024;2022-11-18T00:52:39;18.08;;;12.07;;
52458;SDS011;38372;52.902;6.024;2022-11-18T00:55:05;18.45;;;13.40;;
52458;SDS011;38372;52.902;6.024;2022-11-18T00:57:33;17.95;;;12.40;;
52458;SDS011;38372;52.902;6.024;2022-11-18T00:59:58;19.08;;;12.98;;
52458;SDS011;38372;52.902;6.024;2022-11-18T01:02:31;15.82;;;12.02;;
52458;SDS011;38372;52.902;6.024;2022-11-18T01:05:01;18.15;;;11.82;;
52458;SDS011;38372;52.902;6.024;2022-11-18T01:07:29;17.63;;;12.77;;
52458;SDS011;38372;52.902;6.024;2022-11-18T01:09:55;18.33;;;13.18;;
52458;SDS011;38372;52.902;6.024;2022-11-18T01:12:22;18.13;;;13.32;;
52458;SDS011;38372;52.902;6.024;2022-11-18T01:15:09;19.75;;;13.05;;
52458;SDS011;38372;52.902;6.024;2022-11-18T01:17:36;17.48;;;12.50;;
52458;SDS011;38372;52.902;6.024;2022-11-18T01:20:02;19.90;;;13.55;;
52458;SDS011;38372;52.902;6.024;2022-11-18T01:22:29;18.02;;;14.13;;
52458;SDS011;38372;52.902;6.024;2022-11-18T01:24:55;17.85;;;13.93;;
52458;SDS011;38372;52.902;6.024;2022-11-18T01:27:21;18.73;;;12.73;;
52458;SDS011;38372;52.902;6.024;2022-11-18T01:29:47;35.60;;;15.13;;
52458;SDS011;38372;52.902;6.024;2022-11-18T01:32:13;20.17;;;13.60;;
52458;SDS011;38372;52.902;6.024;2022-11-18T01:34:39;24.58;;;15.35;;
52458;SDS011;38372;52.902;6.024;2022-11-18T01:37:08;20.88;;;15.05;;
52458;SDS011;38372;52.902;6.024;2022-11-18T01:39:34;22.05;;;14.90;;
52458;SDS011;38372;52.902;6.024;2022-11-18T01:42:00;22.55;;;15.88;;
52458;SDS011;38372;52.902;6.024;2022-11-18T01:47:29;24.42;;;16.77;;
52458;SDS011;38372;52.902;6.024;2022-11-18T01:49:58;26.67;;;17.08;;
52458;SDS011;38372;52.902;6.024;2022-11-18T01:52:27;30.08;;;18.48;;
52458;SDS011;38372;52.902;6.024;2022-11-18T01:57:23;31.25;;;19.10;;
52458;SDS011;38372;52.902;6.024;2022-11-18T01:59:53;37.03;;;22.25;;
52458;SDS011;38372;52.902;6.024;2022-11-18T02:02:22;38.72;;;23.45;;
52458;SDS011;38372;52.902;6.024;2022-11-18T02:04:49;44.28;;;23.38;;
52458;SDS011;38372;52.902;6.024;2022-11-18T02:07:16;42.58;;;25.33;;
52458;SDS011;38372;52.902;6.024;2022-11-18T02:09:45;49.70;;;26.27;;
52458;SDS011;38372;52.902;6.024;2022-11-18T02:12:11;54.63;;;27.25;;
52458;SDS011;38372;52.902;6.024;2022-11-18T02:14:39;57.15;;;27.50;;
52458;SDS011;38372;52.902;6.024;2022-11-18T02:20:18;58.05;;;29.20;;
52458;SDS011;38372;52.902;6.024;2022-11-18T02:36:27;70.07;;;31.48;;
52458;SDS011;38372;52.902;6.024;2022-11-18T02:39:06;80.68;;;37.25;;
52458;SDS011;38372;52.902;6.024;2022-11-18T02:41:37;69.00;;;32.70;;
52458;SDS011;38372;52.902;6.024;2022-11-18T02:44:10;63.75;;;31.17;;
52458;SDS011;38372;52.902;6.024;2022-11-18T02:46:42;68.35;;;30.70;;
52458;SDS011;38372;52.902;6.024;2022-11-18T02:49:16;70.82;;;29.95;;
52458;SDS011;38372;52.902;6.024;2022-11-18T02:51:47;58.45;;;30.00;;
52458;SDS011;38372;52.902;6.024;2022-11-18T02:54:14;67.13;;;30.88;;
52458;SDS011;38372;52.902;6.024;2022-11-18T02:56:44;66.10;;;30.98;;
52458;SDS011;38372;52.902;6.024;2022-11-18T02:59:16;64.10;;;29.65;;
52458;SDS011;38372;52.902;6.024;2022-11-18T03:01:43;63.85;;;29.60;;
52458;SDS011;38372;52.902;6.024;2022-11-18T03:04:10;60.22;;;31.10;;
52458;SDS011;38372;52.902;6.024;2022-11-18T03:06:41;65.00;;;31.67;;
52458;SDS011;38372;52.902;6.024;2022-11-18T03:09:15;64.78;;;30.80;;
52458;SDS011;38372;52.902;6.024;2022-11-18T03:11:59;57.15;;;29.45;;
52458;SDS011;38372;52.902;6.024;2022-11-18T03:20:24;61.83;;;29.58;;
52458;SDS011;38372;52.902;6.024;2022-11-18T03:28:16;62.58;;;29.38;;
52458;SDS011;38372;52.902;6.024;2022-11-18T03:30:53;58.20;;;27.58;;
52458;SDS011;38372;52.902;6.024;2022-11-18T03:33:33;61.28;;;28.77;;
52458;SDS011;38372;52.902;6.024;2022-11-18T03:36:36;59.40;;;29.35;;
52458;SDS011;38372;52.902;6.024;2022-11-18T03:39:06;56.30;;;29.48;;
52458;SDS011;38372;52.902;6.024;2022-11-18T03:41:35;61.40;;;29.98;;
52458;SDS011;38372;52.902;6.024;2022-11-18T03:44:09;54.97;;;27.88;;
52458;SDS011;38372;52.902;6.024;2022-11-18T03:46:44;53.15;;;25.77;;
52458;SDS011;38372;52.902;6.024;2022-11-18T03:49:20;50.17;;;28.35;;
52458;SDS011;38372;52.902;6.024;2022-11-18T03:52:01;51.28;;;26.88;;
52458;SDS011;38372;52.902;6.024;2022-11-18T03:54:33;46.13;;;25.90;;
52458;SDS011;38372;52.902;6.024;2022-11-18T03:57:14;49.10;;;26.00;;
52458;SDS011;38372;52.902;6.024;2022-11-18T03:59:46;55.22;;;26.42;;
52458;SDS011;38372;52.902;6.024;2022-11-18T04:02:22;45.13;;;26.20;;
52458;SDS011;38372;52.902;6.024;2022-11-18T04:04:50;51.67;;;26.50;;
52458;SDS011;38372;52.902;6.024;2022-11-18T04:09:57;54.83;;;27.55;;
52458;SDS011;38372;52.902;6.024;2022-11-18T04:12:32;47.95;;;26.65;;
52458;SDS011;38372;52.902;6.024;2022-11-18T04:15:02;47.60;;;25.88;;
52458;SDS011;38372;52.902;6.024;2022-11-18T04:17:28;47.90;;;26.55;;
52458;SDS011;38372;52.902;6.024;2022-11-18T04:19:54;43.25;;;24.88;;
52458;SDS011;38372;52.902;6.024;2022-11-18T04:22:20;43.05;;;25.17;;
52458;SDS011;38372;52.902;6.024;2022-11-18T04:24:46;47.95;;;25.70;;
52458;SDS011;38372;52.902;6.024;2022-11-18T04:27:12;45.50;;;25.67;;
52458;SDS011;38372;52.902;6.024;2022-11-18T04:29:38;41.72;;;25.77;;
52458;SDS011;38372;52.902;6.024;2022-11-18T04:32:04;42.90;;;24.05;;
52458;SDS011;38372;52.902;6.024;2022-11-18T04:34:30;49.03;;;24.98;;
52458;SDS011;38372;52.902;6.024;2022-11-18T04:36:57;43.63;;;26.35;;
52458;SDS011;38372;52.902;6.024;2022-11-18T04:39:23;45.05;;;25.27;;
52458;SDS011;38372;52.902;6.024;2022-11-18T04:41:49;47.47;;;26.05;;
52458;SDS011;38372;52.902;6.024;2022-11-18T04:44:22;49.22;;;26.92;;
52458;SDS011;38372;52.902;6.024;2022-11-18T04:46:50;43.88;;;25.20;;
52458;SDS011;38372;52.902;6.024;2022-11-18T04:49:16;44.10;;;25.13;;
52458;SDS011;38372;52.902;6.024;2022-11-18T04:51:43;43.67;;;24.67;;
52458;SDS011;38372;52.902;6.024;2022-11-18T04:54:10;42.97;;;24.60;;
52458;SDS011;38372;52.902;6.024;2022-11-18T04:56:36;47.65;;;26.08;;
52458;SDS011;38372;52.902;6.024;2022-11-18T04:59:04;42.85;;;24.08;;
52458;SDS011;38372;52.902;6.024;2022-11-18T05:01:31;41.97;;;24.27;;
52458;SDS011;38372;52.902;6.024;2022-11-18T05:03:58;43.92;;;24.00;;
52458;SDS011;38372;52.902;6.024;2022-11-18T05:06:26;43.97;;;25.30;;
52458;SDS011;38372;52.902;6.024;2022-11-18T05:08:52;42.83;;;25.25;;
52458;SDS011;38372;52.902;6.024;2022-11-18T05:11:19;52.13;;;27.80;;
52458;SDS011;38372;52.902;6.024;2022-11-18T05:14:03;41.45;;;24.50;;
52458;SDS011;38372;52.902;6.024;2022-11-18T05:16:29;42.30;;;25.48;;
52458;SDS011;38372;52.902;6.024;2022-11-18T05:18:55;43.60;;;25.13;;
52458;SDS011;38372;52.902;6.024;2022-11-18T05:21:21;44.30;;;25.17;;
52458;SDS011;38372;52.902;6.024;2022-11-18T05:23:47;43.50;;;25.00;;
52458;SDS011;38372;52.902;6.024;2022-11-18T05:26:13;48.28;;;26.73;;
52458;SDS011;38372;52.902;6.024;2022-11-18T05:28:39;45.03;;;25.00;;
52458;SDS011;38372;52.902;6.024;2022-11-18T05:31:09;45.75;;;25.65;;
52458;SDS011;38372;52.902;6.024;2022-11-18T05:33:36;45.42;;;26.08;;
52458;SDS011;38372;52.902;6.024;2022-11-18T05:36:03;46.05;;;25.88;;
52458;SDS011;38372;52.902;6.024;2022-11-18T05:38:31;44.08;;;25.15;;
52458;SDS011;38372;52.902;6.024;2022-11-18T05:40:58;46.60;;;26.45;;
52458;SDS011;38372;52.902;6.024;2022-11-18T05:43:24;42.50;;;23.63;;
52458;SDS011;38372;52.902;6.024;2022-11-18T05:45:50;42.28;;;24.70;;
52458;SDS011;38372;52.902;6.024;2022-11-18T05:48:16;44.55;;;25.25;;
52458;SDS011;38372;52.902;6.024;2022-11-18T05:50:46;47.22;;;27.25;;
52458;SDS011;38372;52.902;6.024;2022-11-18T05:53:14;46.17;;;26.83;;
52458;SDS011;38372;52.902;6.024;2022-11-18T05:55:45;47.65;;;25.60;;
52458;SDS011;38372;52.902;6.024;2022-11-18T05:58:30;44.42;;;25.83;;
52458;SDS011;38372;52.902;6.024;2022-11-18T06:00:57;43.63;;;25.85;;
52458;SDS011;38372;52.902;6.024;2022-11-18T06:03:30;51.30;;;27.20;;
52458;SDS011;38372;52.902;6.024;2022-11-18T06:06:00;54.70;;;29.77;;
52458;SDS011;38372;52.902;6.024;2022-11-18T06:08:34;49.17;;;27.15;;
52458;SDS011;38372;52.902;6.024;2022-11-18T06:11:05;49.97;;;26.10;;
52458;SDS011;38372;52.902;6.024;2022-11-18T06:13:37;51.70;;;28.00;;
52458;SDS011;38372;52.902;6.024;2022-11-18T06:16:13;45.03;;;26.40;;
52458;SDS011;38372;52.902;6.024;2022-11-18T06:18:40;51.92;;;25.08;;
52458;SDS011;38372;52.902;6.024;2022-11-18T06:21:06;46.03;;;28.38;;
52458;SDS011;38372;52.902;6.024;2022-11-18T06:23:35;47.17;;;25.52;;
52458;SDS011;38372;52.902;6.024;2022-11-18T06:26:03;49.47;;;26.85;;
52458;SDS011;38372;52.902;6.024;2022-11-18T06:28:29;46.28;;;24.65;;
52458;SDS011;38372;52.902;6.024;2022-11-18T06:30:55;52.97;;;26.92;;
52458;SDS011;38372;52.902;6.024;2022-11-18T06:33:23;46.50;;;24.65;;
52458;SDS011;38372;52.902;6.024;2022-11-18T06:35:49;45.38;;;26.38;;
52458;SDS011;38372;52.902;6.024;2022-11-18T06:38:15;48.47;;;25.83;;
52458;SDS011;38372;52.902;6.024;2022-11-18T06:40:42;48.20;;;25.83;;
52458;SDS011;38372;52.902;6.024;2022-11-18T06:43:09;50.03;;;24.73;;
52458;SDS011;38372;52.902;6.024;2022-11-18T06:45:58;49.72;;;25.00;;
52458;SDS011;38372;52.902;6.024;2022-11-18T06:48:42;56.20;;;26.25;;
52458;SDS011;38372;52.902;6.024;2022-11-18T06:51:09;48.38;;;25.30;;
52458;SDS011;38372;52.902;6.024;2022-11-18T06:53:35;45.97;;;25.38;;
52458;SDS011;38372;52.902;6.024;2022-11-18T06:56:05;48.90;;;25.73;;
52458;SDS011;38372;52.902;6.024;2022-11-18T06:58:33;46.00;;;24.08;;
52458;SDS011;38372;52.902;6.024;2022-11-18T07:01:13;49.28;;;25.80;;
52458;SDS011;38372;52.902;6.024;2022-11-18T07:03:42;45.92;;;24.83;;
52458;SDS011;38372;52.902;6.024;2022-11-18T07:06:10;45.88;;;23.73;;
52458;SDS011;38372;52.902;6.024;2022-11-18T07:08:37;48.83;;;25.55;;
52458;SDS011;38372;52.902;6.024;2022-11-18T07:11:05;52.63;;;26.38;;
52458;SDS011;38372;52.902;6.024;2022-11-18T07:13:33;48.25;;;26.00;;
52458;SDS011;38372;52.902;6.024;2022-11-18T07:16:06;48.22;;;25.02;;
52458;SDS011;38372;52.902;6.024;2022-11-18T07:18:36;44.03;;;24.42;;
52458;SDS011;38372;52.902;6.024;2022-11-18T07:21:04;46.30;;;24.60;;
52458;SDS011;38372;52.902;6.024;2022-11-18T07:23:32;45.97;;;24.70;;
52458;SDS011;38372;52.902;6.024;2022-11-18T07:25:58;53.83;;;26.80;;
52458;SDS011;38372;52.902;6.024;2022-11-18T07:28:25;55.78;;;26.92;;
52458;SDS011;38372;52.902;6.024;2022-11-18T07:30:52;55.13;;;26.67;;
52458;SDS011;38372;52.902;6.024;2022-11-18T07:33:24;54.55;;;26.98;;
52458;SDS011;38372;52.902;6.024;2022-11-18T07:35:50;48.50;;;25.67;;
52458;SDS011;38372;52.902;6.024;2022-11-18T07:38:19;54.47;;;26.92;;
52458;SDS011;38372;52.902;6.024;2022-11-18T07:40:45;52.08;;;27.83;;
52458;SDS011;38372;52.902;6.024;2022-11-18T07:43:11;44.40;;;24.65;;
52458;SDS011;38372;52.902;6.024;2022-11-18T07:45:37;50.35;;;27.15;;
52458;SDS011;38372;52.902;6.024;2022-11-18T07:48:03;46.75;;;24.02;;
52458;SDS011;38372;52.902;6.024;2022-11-18T07:50:29;47.33;;;24.10;;
52458;SDS011;38372;52.902;6.024;2022-11-18T07:52:55;44.10;;;23.83;;
52458;SDS011;38372;52.902;6.024;2022-11-18T07:55:22;44.15;;;23.17;;
52458;SDS011;38372;52.902;6.024;2022-11-18T07:57:48;44.97;;;24.23;;
52458;SDS011;38372;52.902;6.024;2022-11-18T08:00:14;44.30;;;22.85;;
52458;SDS011;38372;52.902;6.024;2022-11-18T08:02:41;42.55;;;23.25;;
52458;SDS011;38372;52.902;6.024;2022-11-18T08:05:08;42.80;;;22.42;;
52458;SDS011;38372;52.902;6.024;2022-11-18T08:07:34;42.13;;;21.70;;
52458;SDS011;38372;52.902;6.024;2022-11-18T08:10:00;42.03;;;22.70;;
52458;SDS011;38372;52.902;6.024;2022-11-18T08:12:30;43.55;;;22.98;;
52458;SDS011;38372;52.902;6.024;2022-11-18T08:14:56;37.83;;;20.60;;
52458;SDS011;38372;52.902;6.024;2022-11-18T08:17:22;38.03;;;21.00;;
52458;SDS011;38372;52.902;6.024;2022-11-18T08:19:48;34.78;;;19.95;;
52458;SDS011;38372;52.902;6.024;2022-11-18T08:22:14;37.33;;;20.30;;
52458;SDS011;38372;52.902;6.024;2022-11-18T08:24:43;34.15;;;18.85;;
52458;SDS011;38372;52.902;6.024;2022-11-18T08:27:09;34.97;;;18.85;;
52458;SDS011;38372;52.902;6.024;2022-11-18T08:29:36;35.78;;;20.05;;
52458;SDS011;38372;52.902;6.024;2022-11-18T08:32:01;33.35;;;18.48;;
52458;SDS011;38372;52.902;6.024;2022-11-18T08:34:28;32.47;;;18.58;;
52458;SDS011;38372;52.902;6.024;2022-11-18T08:36:54;32.50;;;17.13;;
52458;SDS011;38372;52.902;6.024;2022-11-18T08:39:19;32.10;;;16.73;;
52458;SDS011;38372;52.902;6.024;2022-11-18T08:41:45;30.02;;;18.60;;
52458;SDS011;38372;52.902;6.024;2022-11-18T08:44:15;29.88;;;16.58;;
52458;SDS011;38372;52.902;6.024;2022-11-18T08:46:42;29.08;;;17.00;;
52458;SDS011;38372;52.902;6.024;2022-11-18T08:49:11;29.47;;;15.97;;
52458;SDS011;38372;52.902;6.024;2022-11-18T08:51:37;29.73;;;17.23;;
52458;SDS011;38372;52.902;6.024;2022-11-18T08:54:03;29.63;;;16.27;;
52458;SDS011;38372;52.902;6.024;2022-11-18T08:56:29;27.33;;;16.10;;
52458;SDS011;38372;52.902;6.024;2022-11-18T08:58:55;27.27;;;15.68;;
52458;SDS011;38372;52.902;6.024;2022-11-18T09:01:24;28.10;;;14.82;;
52458;SDS011;38372;52.902;6.024;2022-11-18T09:03:52;28.33;;;16.23;;
52458;SDS011;38372;52.902;6.024;2022-11-18T09:06:19;29.80;;;15.70;;
52458;SDS011;38372;52.902;6.024;2022-11-18T09:08:48;31.52;;;15.77;;
52458;SDS011;38372;52.902;6.024;2022-11-18T09:11:20;26.58;;;14.18;;
52458;SDS011;38372;52.902;6.024;2022-11-18T09:13:54;29.65;;;16.88;;
52458;SDS011;38372;52.902;6.024;2022-11-18T09:16:25;29.60;;;15.02;;
52458;SDS011;38372;52.902;6.024;2022-11-18T09:18:54;26.05;;;14.60;;
52458;SDS011;38372;52.902;6.024;2022-11-18T09:21:21;29.40;;;16.10;;
52458;SDS011;38372;52.902;6.024;2022-11-18T09:23:47;27.23;;;15.20;;
52458;SDS011;38372;52.902;6.024;2022-11-18T09:26:15;26.58;;;15.18;;
52458;SDS011;38372;52.902;6.024;2022-11-18T09:28:43;28.00;;;15.68;;
52458;SDS011;38372;52.902;6.024;2022-11-18T09:31:10;26.70;;;15.43;;
52458;SDS011;38372;52.902;6.024;2022-11-18T09:33:38;28.40;;;15.80;;
52458;SDS011;38372;52.902;6.024;2022-11-18T09:36:11;26.40;;;14.25;;
52458;SDS011;38372;52.902;6.024;2022-11-18T09:38:41;25.27;;;13.85;;
52458;SDS011;38372;52.902;6.024;2022-11-18T09:43:43;25.45;;;14.70;;
52458;SDS011;38372;52.902;6.024;2022-11-18T09:49:13;24.88;;;13.88;;
52458;SDS011;38372;52.902;6.024;2022-11-18T09:51:43;24.05;;;14.18;;
52458;SDS011;38372;52.902;6.024;2022-11-18T09:54:19;24.92;;;14.13;;
52458;SDS011;38372;52.902;6.024;2022-11-18T09:57:01;22.87;;;12.60;;
52458;SDS011;38372;52.902;6.024;2022-11-18T09:59:32;20.75;;;13.48;;
52458;SDS011;38372;52.902;6.024;2022-11-18T10:02:14;23.95;;;13.88;;
52458;SDS011;38372;52.902;6.024;2022-11-18T10:05:19;24.75;;;14.00;;
52458;SDS011;38372;52.902;6.024;2022-11-18T10:07:48;23.75;;;13.90;;
52458;SDS011;38372;52.902;6.024;2022-11-18T10:10:55;23.85;;;13.93;;
52458;SDS011;38372;52.902;6.024;2022-11-18T10:22:30;23.10;;;12.65;;
52458;SDS011;38372;52.902;6.024;2022-11-18T10:27:41;20.77;;;11.90;;
52458;SDS011;38372;52.902;6.024;2022-11-18T10:30:17;23.88;;;13.50;;
52458;SDS011;38372;52.902;6.024;2022-11-18T10:33:03;20.50;;;12.40;;
52458;SDS011;38372;52.902;6.024;2022-11-18T10:35:44;19.08;;;12.02;;
52458;SDS011;38372;52.902;6.024;2022-11-18T10:38:18;22.63;;;12.43;;
52458;SDS011;38372;52.902;6.024;2022-11-18T10:43:40;17.92;;;11.82;;
52458;SDS011;38372;52.902;6.024;2022-11-18T10:46:29;18.50;;;10.68;;
52458;SDS011;38372;52.902;6.024;2022-11-18T10:49:14;22.08;;;12.25;;
52458;SDS011;38372;52.902;6.024;2022-11-18T10:51:44;23.10;;;12.68;;
52458;SDS011;38372;52.902;6.024;2022-11-18T10:54:30;21.30;;;12.52;;
52458;SDS011;38372;52.902;6.024;2022-11-18T10:57:20;21.58;;;12.43;;
52458;SDS011;38372;52.902;6.024;2022-11-18T10:59:54;20.15;;;11.95;;
52458;SDS011;38372;52.902;6.024;2022-11-18T11:05:14;16.48;;;10.57;;
52458;SDS011;38372;52.902;6.024;2022-11-18T11:08:05;16.60;;;10.40;;
52458;SDS011;38372;52.902;6.024;2022-11-18T11:11:08;19.83;;;11.45;;
52458;SDS011;38372;52.902;6.024;2022-11-18T11:14:01;21.30;;;11.90;;
52458;SDS011;38372;52.902;6.024;2022-11-18T11:17:12;21.90;;;12.20;;
52458;SDS011;38372;52.902;6.024;2022-11-18T11:22:51;17.60;;;10.80;;
52458;SDS011;38372;52.902;6.024;2022-11-18T11:25:22;15.60;;;10.27;;
52458;SDS011;38372;52.902;6.024;2022-11-18T11:28:01;18.13;;;10.17;;
52458;SDS011;38372;52.902;6.024;2022-11-18T11:31:09;16.08;;;9.07;;
52458;SDS011;38372;52.902;6.024;2022-11-18T11:37:15;14.85;;;9.48;;
52458;SDS011;38372;52.902;6.024;2022-11-18T11:46:53;21.60;;;11.13;;
52458;SDS011;38372;52.902;6.024;2022-11-18T11:53:16;17.65;;;9.88;;
52458;SDS011;38372;52.902;6.024;2022-11-18T11:56:41;14.32;;;7.90;;
52458;SDS011;38372;52.902;6.024;2022-11-18T12:00:15;16.25;;;8.82;;
52458;SDS011;38372;52.902;6.024;2022-11-18T12:05:51;17.90;;;10.20;;
52458;SDS011;38372;52.902;6.024;2022-11-18T12:08:21;15.57;;;9.68;;
52458;SDS011;38372;52.902;6.024;2022-11-18T12:16:35;19.98;;;10.85;;
52458;SDS011;38372;52.902;6.024;2022-11-18T12:19:19;15.52;;;10.18;;
52458;SDS011;38372;52.902;6.024;2022-11-18T12:21:51;19.10;;;9.98;;
52458;SDS011;38372;52.902;6.024;2022-11-18T12:27:52;18.25;;;10.73;;
52458;SDS011;38372;52.902;6.024;2022-11-18T12:30:16;19.33;;;11.13;;
52458;SDS011;38372;52.902;6.024;2022-11-18T12:32:45;20.45;;;10.93;;
52458;SDS011;38372;52.902;6.024;2022-11-18T12:35:33;17.30;;;10.10;;
52458;SDS011;38372;52.902;6.024;2022-11-18T12:38:01;18.00;;;11.05;;
52458;SDS011;38372;52.902;6.024;2022-11-18T12:40:38;18.20;;;10.77;;
52458;SDS011;38372;52.902;6.024;2022-11-18T12:52:43;40.35;;;20.70;;
52458;SDS011;38372;52.902;6.024;2022-11-18T12:54:54;31.00;;;17.20;;
52458;SDS011;38372;52.902;6.024;2022-11-18T12:57:32;17.15;;;10.48;;
52458;SDS011;38372;52.902;6.024;2022-11-18T13:00:14;26.20;;;14.75;;
52458;SDS011;38372;52.902;6.024;2022-11-18T13:02:41;27.30;;;15.88;;
52458;SDS011;38372;52.902;6.024;2022-11-18T13:05:22;27.00;;;15.93;;
52458;SDS011;38372;52.902;6.024;2022-11-18T13:10:46;18.45;;;9.20;;
52458;SDS011;38372;52.902;6.024;2022-11-18T13:13:31;17.88;;;9.88;;
52458;SDS011;38372;52.902;6.024;2022-11-18T13:16:04;18.30;;;10.90;;
52458;SDS011;38372;52.902;6.024;2022-11-18T13:19:06;17.17;;;10.50;;
52458;SDS011;38372;52.902;6.024;2022-11-18T13:21:32;16.83;;;10.02;;
52458;SDS011;38372;52.902;6.024;2022-11-18T13:24:22;20.58;;;10.90;;
52458;SDS011;38372;52.902;6.024;2022-11-18T13:26:55;19.48;;;10.52;;
52458;SDS011;38372;52.902;6.024;2022-11-18T13:29:37;18.95;;;11.40;;
52458;SDS011;38372;52.902;6.024;2022-11-18T13:32:22;18.77;;;11.07;;
52458;SDS011;38372;52.902;6.024;2022-11-18T13:34:54;15.82;;;8.52;;
52458;SDS011;38372;52.902;6.024;2022-11-18T13:37:52;15.75;;;7.43;;
52458;SDS011;38372;52.902;6.024;2022-11-18T13:40:42;13.15;;;7.45;;
52458;SDS011;38372;52.902;6.024;2022-11-18T13:43:28;14.73;;;7.63;;
52458;SDS011;38372;52.902;6.024;2022-11-18T13:46:00;14.60;;;8.30;;
52458;SDS011;38372;52.902;6.024;2022-11-18T13:48:29;19.13;;;10.20;;
52458;SDS011;38372;52.902;6.024;2022-11-18T13:50:57;12.52;;;7.95;;
52458;SDS011;38372;52.902;6.024;2022-11-18T14:01:16;26.15;;;12.35;;
52458;SDS011;38372;52.902;6.024;2022-11-18T14:06:10;21.48;;;11.45;;
52458;SDS011;38372;52.902;6.024;2022-11-18T14:08:38;21.17;;;11.35;;
52458;SDS011;38372;52.902;6.024;2022-11-18T14:11:04;23.58;;;12.02;;
52458;SDS011;38372;52.902;6.024;2022-11-18T14:13:35;26.42;;;13.30;;
52458;SDS011;38372;52.902;6.024;2022-11-18T14:18:46;18.63;;;10.05;;
52458;SDS011;38372;52.902;6.024;2022-11-18T14:23:49;17.75;;;10.05;;
52458;SDS011;38372;52.902;6.024;2022-11-18T14:26:18;19.67;;;10.00;;
52458;SDS011;38372;52.902;6.024;2022-11-18T14:29:01;20.48;;;11.40;;
52458;SDS011;38372;52.902;6.024;2022-11-18T14:31:38;20.98;;;10.55;;
52458;SDS011;38372;52.902;6.024;2022-11-18T14:34:19;21.50;;;11.55;;
52458;SDS011;38372;52.902;6.024;2022-11-18T14:36:48;25.17;;;14.85;;
52458;SDS011;38372;52.902;6.024;2022-11-18T14:39:23;20.88;;;11.55;;
52458;SDS011;38372;52.902;6.024;2022-11-18T14:41:53;17.63;;;11.05;;
52458;SDS011;38372;52.902;6.024;2022-11-18T14:44:21;24.75;;;14.05;;
52458;SDS011;38372;52.902;6.024;2022-11-18T14:46:50;26.83;;;13.27;;
52458;SDS011;38372;52.902;6.024;2022-11-18T14:49:27;27.80;;;12.57;;
52458;SDS011;38372;52.902;6.024;2022-11-18T14:51:57;22.75;;;13.10;;
52458;SDS011;38372;52.902;6.024;2022-11-18T14:57:13;25.23;;;15.25;;
52458;SDS011;38372;52.902;6.024;2022-11-18T14:59:42;26.02;;;15.27;;
52458;SDS011;38372;52.902;6.024;2022-11-18T15:02:18;25.13;;;14.77;;
52458;SDS011;38372;52.902;6.024;2022-11-18T15:04:47;25.65;;;12.77;;
52458;SDS011;38372;52.902;6.024;2022-11-18T15:07:17;24.33;;;12.73;;
52458;SDS011;38372;52.902;6.024;2022-11-18T15:09:43;26.00;;;13.70;;
52458;SDS011;38372;52.902;6.024;2022-11-18T15:12:12;26.10;;;12.45;;
52458;SDS011;38372;52.902;6.024;2022-11-18T15:14:39;23.58;;;13.27;;
52458;SDS011;38372;52.902;6.024;2022-11-18T15:17:09;25.60;;;13.27;;
52458;SDS011;38372;52.902;6.024;2022-11-18T15:19:37;26.23;;;12.63;;
52458;SDS011;38372;52.902;6.024;2022-11-18T15:24:33;22.48;;;12.15;;
52458;SDS011;38372;52.902;6.024;2022-11-18T15:27:07;23.42;;;12.80;;
52458;SDS011;38372;52.902;6.024;2022-11-18T15:29:43;18.00;;;9.55;;
52458;SDS011;38372;52.902;6.024;2022-11-18T15:32:11;19.10;;;10.68;;
52458;SDS011;38372;52.902;6.024;2022-11-18T15:34:37;20.48;;;10.48;;
52458;SDS011;38372;52.902;6.024;2022-11-18T15:37:09;21.13;;;12.18;;
52458;SDS011;38372;52.902;6.024;2022-11-18T15:39:36;20.67;;;10.57;;
52458;SDS011;38372;52.902;6.024;2022-11-18T15:42:03;21.92;;;11.20;;
52458;SDS011;38372;52.902;6.024;2022-11-18T15:44:32;20.70;;;10.75;;
52458;SDS011;38372;52.902;6.024;2022-11-18T15:46:59;20.17;;;11.45;;
52458;SDS011;38372;52.902;6.024;2022-11-18T15:49:27;22.52;;;11.80;;
52458;SDS011;38372;52.902;6.024;2022-11-18T15:51:53;20.33;;;10.27;;
52458;SDS011;38372;52.902;6.024;2022-11-18T15:54:19;22.45;;;12.10;;
52458;SDS011;38372;52.902;6.024;2022-11-18T15:57:05;20.08;;;11.82;;
52458;SDS011;38372;52.902;6.024;2022-11-18T15:59:32;20.88;;;10.98;;
52458;SDS011;38372;52.902;6.024;2022-11-18T16:01:58;20.25;;;12.15;;
52458;SDS011;38372;52.902;6.024;2022-11-18T16:04:28;23.52;;;11.75;;
52458;SDS011;38372;52.902;6.024;2022-11-18T16:06:54;27.33;;;12.85;;
52458;SDS011;38372;52.902;6.024;2022-11-18T16:09:22;16.45;;;8.60;;
52458;SDS011;38372;52.902;6.024;2022-11-18T16:11:51;23.42;;;11.27;;
52458;SDS011;38372;52.902;6.024;2022-11-18T16:14:35;19.15;;;11.27;;
52458;SDS011;38372;52.902;6.024;2022-11-18T16:17:02;21.98;;;13.45;;
52458;SDS011;38372;52.902;6.024;2022-11-18T16:19:32;20.10;;;11.00;;
52458;SDS011;38372;52.902;6.024;2022-11-18T16:21:58;23.27;;;12.93;;
52458;SDS011;38372;52.902;6.024;2022-11-18T16:24:28;27.25;;;14.57;;
52458;SDS011;38372;52.902;6.024;2022-11-18T16:29:29;20.58;;;9.88;;
52458;SDS011;38372;52.902;6.024;2022-11-18T16:31:55;26.65;;;13.40;;
52458;SDS011;38372;52.902;6.024;2022-11-18T16:36:51;26.27;;;13.60;;
52458;SDS011;38372;52.902;6.024;2022-11-18T16:39:19;27.60;;;14.68;;
52458;SDS011;38372;52.902;6.024;2022-11-18T16:42:06;27.92;;;13.45;;
52458;SDS011;38372;52.902;6.024;2022-11-18T16:44:35;21.00;;;11.68;;
52458;SDS011;38372;52.902;6.024;2022-11-18T16:47:02;25.50;;;13.27;;
52458;SDS011;38372;52.902;6.024;2022-11-18T16:49:28;25.33;;;13.25;;
52458;SDS011;38372;52.902;6.024;2022-11-18T16:51:54;26.88;;;12.70;;
52458;SDS011;38372;52.902;6.024;2022-11-18T16:54:22;25.67;;;13.00;;